sensor_id;sensor_type;location;lat;lon;timestamp;temperature;humidity
42979;DHT22;28616;44.746;19.678;2022-12-07T00:01:03;7.00;99.90
42979;DHT22;28616;44.746;19.678;2022-12-07T00:03:29;7.00;99.90
42979;DHT22;28616;44.746;19.678;2022-12-07T00:05:58;7.00;99.90
42979;DHT22;28616;44.746;19.678;2022-12-07T00:08:24;7.00;99.90
42979;DHT22;28616;44.746;19.678;2022-12-07T00:10:49;7.00;99.90
42979;DHT22;28616;44.746;19.678;2022-12-07T00:13:15;7.00;99.90
42979;DHT22;28616;44.746;19.678;2022-12-07T00:15:41;6.90;99.90
42979;DHT22;28616;44.746;19.678;2022-12-07T00:18:07;6.90;99.90
42979;DHT22;28616;44.746;19.678;2022-12-07T00:20:33;6.90;99.90
42979;DHT22;28616;44.746;19.678;2022-12-07T00:22:59;6.80;99.90
42979;DHT22;28616;44.746;19.678;2022-12-07T00:25:25;6.80;99.90
42979;DHT22;28616;44.746;19.678;2022-12-07T00:27:53;6.80;99.90
42979;DHT22;28616;44.746;19.678;2022-12-07T00:30:21;6.80;99.90
42979;DHT22;28616;44.746;19.678;2022-12-07T00:32:47;6.70;99.90
42979;DHT22;28616;44.746;19.678;2022-12-07T00:35:13;6.70;99.90
42979;DHT22;28616;44.746;19.678;2022-12-07T00:37:39;6.70;99.90
42979;DHT22;28616;44.746;19.678;2022-12-07T00:40:06;6.80;99.90
42979;DHT22;28616;44.746;19.678;2022-12-07T00:42:32;6.80;99.90
42979;DHT22;28616;44.746;19.678;2022-12-07T00:44:58;6.80;99.90
42979;DHT22;28616;44.746;19.678;2022-12-07T00:47:23;6.80;99.90
42979;DHT22;28616;44.746;19.678;2022-12-07T00:49:49;6.80;99.90
42979;DHT22;28616;44.746;19.678;2022-12-07T00:52:15;6.80;99.90
42979;DHT22;28616;44.746;19.678;2022-12-07T00:54:40;6.80;99.90
42979;DHT22;28616;44.746;19.678;2022-12-07T00:57:06;6.90;99.90
42979;DHT22;28616;44.746;19.678;2022-12-07T00:59:32;6.90;99.90
42979;DHT22;28616;44.746;19.678;2022-12-07T01:01:58;6.90;99.90
42979;DHT22;28616;44.746;19.678;2022-12-07T01:04:24;6.80;99.90
42979;DHT22;28616;44.746;19.678;2022-12-07T01:06:49;6.80;99.90
42979;DHT22;28616;44.746;19.678;2022-12-07T01:09:15;6.80;99.90
42979;DHT22;28616;44.746;19.678;2022-12-07T01:11:41;6.80;99.90
42979;DHT22;28616;44.746;19.678;2022-12-07T01:14:08;6.80;99.90
42979;DHT22;28616;44.746;19.678;2022-12-07T01:16:34;6.80;99.90
42979;DHT22;28616;44.746;19.678;2022-12-07T01:19:00;6.80;99.90
42979;DHT22;28616;44.746;19.678;2022-12-07T01:21:29;6.80;99.90
42979;DHT22;28616;44.746;19.678;2022-12-07T01:23:57;6.80;99.90
42979;DHT22;28616;44.746;19.678;2022-12-07T01:26:24;6.80;99.90
42979;DHT22;28616;44.746;19.678;2022-12-07T01:28:51;6.70;99.90
42979;DHT22;28616;44.746;19.678;2022-12-07T01:31:19;6.80;99.90
42979;DHT22;28616;44.746;19.678;2022-12-07T01:33:49;6.80;99.90
42979;DHT22;28616;44.746;19.678;2022-12-07T01:36:20;6.80;99.90
42979;DHT22;28616;44.746;19.678;2022-12-07T01:38:47;6.70;99.90
42979;DHT22;28616;44.746;19.678;2022-12-07T01:41:14;6.80;99.90
42979;DHT22;28616;44.746;19.678;2022-12-07T01:47:03;6.80;99.90
42979;DHT22;28616;44.746;19.678;2022-12-07T01:49:44;6.80;99.90
42979;DHT22;28616;44.746;19.678;2022-12-07T01:54:42;6.70;99.90
42979;DHT22;28616;44.746;19.678;2022-12-07T01:57:10;6.70;99.90
42979;DHT22;28616;44.746;19.678;2022-12-07T01:59:36;6.70;99.90
42979;DHT22;28616;44.746;19.678;2022-12-07T02:02:05;6.70;99.90
42979;DHT22;28616;44.746;19.678;2022-12-07T02:04:33;6.70;99.90
42979;DHT22;28616;44.746;19.678;2022-12-07T02:07:00;6.70;99.90
42979;DHT22;28616;44.746;19.678;2022-12-07T02:09:27;6.70;99.90
42979;DHT22;28616;44.746;19.678;2022-12-07T02:11:54;6.70;99.90
42979;DHT22;28616;44.746;19.678;2022-12-07T02:14:20;6.70;99.90
42979;DHT22;28616;44.746;19.678;2022-12-07T02:16:55;6.70;99.90
42979;DHT22;28616;44.746;19.678;2022-12-07T02:28:29;6.50;99.90
42979;DHT22;28616;44.746;19.678;2022-12-07T02:31:02;6.50;99.90
42979;DHT22;28616;44.746;19.678;2022-12-07T02:33:36;6.50;99.90
42979;DHT22;28616;44.746;19.678;2022-12-07T02:36:08;6.50;99.90
42979;DHT22;28616;44.746;19.678;2022-12-07T02:41:22;6.50;99.90
42979;DHT22;28616;44.746;19.678;2022-12-07T02:43:55;6.50;99.90
42979;DHT22;28616;44.746;19.678;2022-12-07T02:46:43;6.50;99.90
42979;DHT22;28616;44.746;19.678;2022-12-07T02:49:10;6.50;99.90
42979;DHT22;28616;44.746;19.678;2022-12-07T02:51:41;6.50;99.90
42979;DHT22;28616;44.746;19.678;2022-12-07T02:54:16;6.50;99.90
42979;DHT22;28616;44.746;19.678;2022-12-07T03:05:02;6.40;99.90
42979;DHT22;28616;44.746;19.678;2022-12-07T03:12:58;6.50;99.90
42979;DHT22;28616;44.746;19.678;2022-12-07T03:15:47;6.50;99.90
42979;DHT22;28616;44.746;19.678;2022-12-07T03:18:20;6.60;99.90
42979;DHT22;28616;44.746;19.678;2022-12-07T03:20:50;6.60;99.90
42979;DHT22;28616;44.746;19.678;2022-12-07T03:23:17;6.60;99.90
42979;DHT22;28616;44.746;19.678;2022-12-07T03:25:50;6.60;99.90
42979;DHT22;28616;44.746;19.678;2022-12-07T03:28:19;6.50;99.90
42979;DHT22;28616;44.746;19.678;2022-12-07T03:31:18;6.50;99.90
42979;DHT22;28616;44.746;19.678;2022-12-07T03:33:49;6.50;99.90
42979;DHT22;28616;44.746;19.678;2022-12-07T03:36:51;6.50;99.90
42979;DHT22;28616;44.746;19.678;2022-12-07T03:39:34;6.50;99.90
42979;DHT22;28616;44.746;19.678;2022-12-07T03:42:04;6.50;99.90
42979;DHT22;28616;44.746;19.678;2022-12-07T03:44:31;6.50;99.90
42979;DHT22;28616;44.746;19.678;2022-12-07T03:47:10;6.50;99.90
42979;DHT22;28616;44.746;19.678;2022-12-07T03:49:48;6.60;99.90
42979;DHT22;28616;44.746;19.678;2022-12-07T03:52:45;6.50;99.90
42979;DHT22;28616;44.746;19.678;2022-12-07T03:57:47;6.50;99.90
42979;DHT22;28616;44.746;19.678;2022-12-07T04:00:14;6.50;99.90
42979;DHT22;28616;44.746;19.678;2022-12-07T04:02:41;6.50;99.90
42979;DHT22;28616;44.746;19.678;2022-12-07T04:05:08;6.50;99.90
42979;DHT22;28616;44.746;19.678;2022-12-07T04:07:33;6.60;99.90
42979;DHT22;28616;44.746;19.678;2022-12-07T04:09:59;6.50;99.90
42979;DHT22;28616;44.746;19.678;2022-12-07T04:12:25;6.60;99.90
42979;DHT22;28616;44.746;19.678;2022-12-07T04:14:51;6.60;99.90
42979;DHT22;28616;44.746;19.678;2022-12-07T04:17:16;6.50;99.90
42979;DHT22;28616;44.746;19.678;2022-12-07T04:19:42;6.60;99.90
42979;DHT22;28616;44.746;19.678;2022-12-07T04:22:08;6.60;99.90
42979;DHT22;28616;44.746;19.678;2022-12-07T04:24:34;6.50;99.90
42979;DHT22;28616;44.746;19.678;2022-12-07T04:27:00;6.60;99.90
42979;DHT22;28616;44.746;19.678;2022-12-07T04:29:26;6.60;99.90
42979;DHT22;28616;44.746;19.678;2022-12-07T04:31:52;6.50;99.90
42979;DHT22;28616;44.746;19.678;2022-12-07T04:34:19;6.50;99.90
42979;DHT22;28616;44.746;19.678;2022-12-07T04:36:46;6.50;99.90
42979;DHT22;28616;44.746;19.678;2022-12-07T04:39:23;6.50;99.90
42979;DHT22;28616;44.746;19.678;2022-12-07T04:41:50;6.50;99.90
42979;DHT22;28616;44.746;19.678;2022-12-07T04:44:16;6.50;99.90
42979;DHT22;28616;44.746;19.678;2022-12-07T04:46:43;6.50;99.90
42979;DHT22;28616;44.746;19.678;2022-12-07T04:49:10;6.50;99.90
42979;DHT22;28616;44.746;19.678;2022-12-07T04:51:36;6.50;99.90
42979;DHT22;28616;44.746;19.678;2022-12-07T04:54:02;6.50;99.90
42979;DHT22;28616;44.746;19.678;2022-12-07T04:56:27;6.50;99.90
42979;DHT22;28616;44.746;19.678;2022-12-07T04:58:54;6.50;99.90
42979;DHT22;28616;44.746;19.678;2022-12-07T05:01:20;6.50;99.90
42979;DHT22;28616;44.746;19.678;2022-12-07T05:03:47;6.40;99.90
42979;DHT22;28616;44.746;19.678;2022-12-07T05:06:14;6.50;99.90
42979;DHT22;28616;44.746;19.678;2022-12-07T05:08:40;6.50;99.90
42979;DHT22;28616;44.746;19.678;2022-12-07T05:11:07;6.50;99.90
42979;DHT22;28616;44.746;19.678;2022-12-07T05:13:33;6.50;99.90
42979;DHT22;28616;44.746;19.678;2022-12-07T05:15:59;6.50;99.90
42979;DHT22;28616;44.746;19.678;2022-12-07T05:18:25;6.60;99.90
42979;DHT22;28616;44.746;19.678;2022-12-07T05:20:51;6.60;99.90
42979;DHT22;28616;44.746;19.678;2022-12-07T05:23:17;6.70;99.90
42979;DHT22;28616;44.746;19.678;2022-12-07T05:25:44;6.60;99.90
42979;DHT22;28616;44.746;19.678;2022-12-07T05:28:10;6.60;99.90
42979;DHT22;28616;44.746;19.678;2022-12-07T05:30:36;6.60;99.90
42979;DHT22;28616;44.746;19.678;2022-12-07T05:33:02;6.60;99.90
42979;DHT22;28616;44.746;19.678;2022-12-07T05:35:28;6.60;99.90
42979;DHT22;28616;44.746;19.678;2022-12-07T05:37:55;6.60;99.90
42979;DHT22;28616;44.746;19.678;2022-12-07T05:40:21;6.60;99.90
42979;DHT22;28616;44.746;19.678;2022-12-07T05:42:47;6.60;99.90
42979;DHT22;28616;44.746;19.678;2022-12-07T05:45:12;6.60;99.90
42979;DHT22;28616;44.746;19.678;2022-12-07T05:47:38;6.60;99.90
42979;DHT22;28616;44.746;19.678;2022-12-07T05:50:05;6.60;99.90
42979;DHT22;28616;44.746;19.678;2022-12-07T05:52:31;6.50;99.90
42979;DHT22;28616;44.746;19.678;2022-12-07T05:54:57;6.50;99.90
42979;DHT22;28616;44.746;19.678;2022-12-07T05:57:23;6.50;99.90
42979;DHT22;28616;44.746;19.678;2022-12-07T05:59:48;6.50;99.90
42979;DHT22;28616;44.746;19.678;2022-12-07T06:02:15;6.50;99.90
42979;DHT22;28616;44.746;19.678;2022-12-07T06:04:43;6.50;99.90
42979;DHT22;28616;44.746;19.678;2022-12-07T06:07:10;6.50;99.90
42979;DHT22;28616;44.746;19.678;2022-12-07T06:09:37;6.50;99.90
42979;DHT22;28616;44.746;19.678;2022-12-07T06:12:03;6.50;99.90
42979;DHT22;28616;44.746;19.678;2022-12-07T06:14:48;6.50;99.90
42979;DHT22;28616;44.746;19.678;2022-12-07T06:17:14;6.50;99.90
42979;DHT22;28616;44.746;19.678;2022-12-07T06:19:40;6.40;99.90
42979;DHT22;28616;44.746;19.678;2022-12-07T06:22:07;6.50;99.90
42979;DHT22;28616;44.746;19.678;2022-12-07T06:24:34;6.40;99.90
42979;DHT22;28616;44.746;19.678;2022-12-07T06:27:01;6.40;99.90
42979;DHT22;28616;44.746;19.678;2022-12-07T06:29:26;6.40;99.90
42979;DHT22;28616;44.746;19.678;2022-12-07T06:31:52;6.40;99.90
42979;DHT22;28616;44.746;19.678;2022-12-07T06:34:20;6.40;99.90
42979;DHT22;28616;44.746;19.678;2022-12-07T06:36:48;6.40;99.90
42979;DHT22;28616;44.746;19.678;2022-12-07T06:39:18;6.40;99.90
42979;DHT22;28616;44.746;19.678;2022-12-07T06:41:44;6.40;99.90
42979;DHT22;28616;44.746;19.678;2022-12-07T06:44:10;6.40;99.90
42979;DHT22;28616;44.746;19.678;2022-12-07T06:46:35;6.40;99.90
42979;DHT22;28616;44.746;19.678;2022-12-07T06:49:02;6.40;99.90
42979;DHT22;28616;44.746;19.678;2022-12-07T06:51:27;6.40;99.90
42979;DHT22;28616;44.746;19.678;2022-12-07T06:53:53;6.40;99.90
42979;DHT22;28616;44.746;19.678;2022-12-07T06:56:19;6.40;99.90
42979;DHT22;28616;44.746;19.678;2022-12-07T06:58:45;6.50;99.90
42979;DHT22;28616;44.746;19.678;2022-12-07T07:01:16;6.50;99.90
42979;DHT22;28616;44.746;19.678;2022-12-07T07:03:42;6.50;99.90
42979;DHT22;28616;44.746;19.678;2022-12-07T07:06:08;6.50;99.90
42979;DHT22;28616;44.746;19.678;2022-12-07T07:08:35;6.50;99.90
42979;DHT22;28616;44.746;19.678;2022-12-07T07:11:01;6.50;99.90
42979;DHT22;28616;44.746;19.678;2022-12-07T07:13:27;6.50;99.90
42979;DHT22;28616;44.746;19.678;2022-12-07T07:15:54;6.60;99.90
42979;DHT22;28616;44.746;19.678;2022-12-07T07:18:19;6.50;99.90
42979;DHT22;28616;44.746;19.678;2022-12-07T07:20:45;6.50;99.90
42979;DHT22;28616;44.746;19.678;2022-12-07T07:23:11;6.50;99.90
42979;DHT22;28616;44.746;19.678;2022-12-07T07:25:37;6.60;99.90
42979;DHT22;28616;44.746;19.678;2022-12-07T07:28:04;6.60;99.90
42979;DHT22;28616;44.746;19.678;2022-12-07T07:30:30;6.60;99.90
42979;DHT22;28616;44.746;19.678;2022-12-07T07:33:00;6.60;99.90
42979;DHT22;28616;44.746;19.678;2022-12-07T07:35:27;6.60;99.90
42979;DHT22;28616;44.746;19.678;2022-12-07T07:37:53;6.60;99.90
42979;DHT22;28616;44.746;19.678;2022-12-07T07:40:19;6.60;99.90
42979;DHT22;28616;44.746;19.678;2022-12-07T07:42:48;6.70;99.90
42979;DHT22;28616;44.746;19.678;2022-12-07T07:45:14;6.60;99.90
42979;DHT22;28616;44.746;19.678;2022-12-07T07:47:40;6.70;99.90
42979;DHT22;28616;44.746;19.678;2022-12-07T07:50:06;6.70;99.90
42979;DHT22;28616;44.746;19.678;2022-12-07T07:52:32;6.70;99.90
42979;DHT22;28616;44.746;19.678;2022-12-07T07:54:58;6.60;99.90
42979;DHT22;28616;44.746;19.678;2022-12-07T07:57:24;6.70;99.90
42979;DHT22;28616;44.746;19.678;2022-12-07T07:59:49;6.70;99.90
42979;DHT22;28616;44.746;19.678;2022-12-07T08:02:17;6.70;99.90
42979;DHT22;28616;44.746;19.678;2022-12-07T08:04:43;6.70;99.90
42979;DHT22;28616;44.746;19.678;2022-12-07T08:07:10;6.70;99.90
42979;DHT22;28616;44.746;19.678;2022-12-07T08:09:36;6.70;99.90
42979;DHT22;28616;44.746;19.678;2022-12-07T08:12:01;6.80;99.90
42979;DHT22;28616;44.746;19.678;2022-12-07T08:14:27;6.70;99.90
42979;DHT22;28616;44.746;19.678;2022-12-07T08:16:54;6.80;99.90
42979;DHT22;28616;44.746;19.678;2022-12-07T08:19:20;6.70;99.90
42979;DHT22;28616;44.746;19.678;2022-12-07T08:21:46;6.70;99.90
42979;DHT22;28616;44.746;19.678;2022-12-07T08:24:12;6.70;99.90
42979;DHT22;28616;44.746;19.678;2022-12-07T08:26:38;6.70;99.90
42979;DHT22;28616;44.746;19.678;2022-12-07T08:29:03;6.70;99.90
42979;DHT22;28616;44.746;19.678;2022-12-07T08:31:30;6.70;99.90
42979;DHT22;28616;44.746;19.678;2022-12-07T08:33:55;6.70;99.90
42979;DHT22;28616;44.746;19.678;2022-12-07T08:36:21;6.80;99.90
42979;DHT22;28616;44.746;19.678;2022-12-07T08:38:49;6.90;99.90
42979;DHT22;28616;44.746;19.678;2022-12-07T08:41:15;7.00;99.90
42979;DHT22;28616;44.746;19.678;2022-12-07T08:43:41;6.90;99.90
42979;DHT22;28616;44.746;19.678;2022-12-07T08:51:21;6.90;99.90
42979;DHT22;28616;44.746;19.678;2022-12-07T08:53:49;7.00;99.90
42979;DHT22;28616;44.746;19.678;2022-12-07T08:56:15;7.00;99.90
42979;DHT22;28616;44.746;19.678;2022-12-07T08:58:42;7.00;99.90
42979;DHT22;28616;44.746;19.678;2022-12-07T09:01:08;7.00;99.90
42979;DHT22;28616;44.746;19.678;2022-12-07T09:03:33;7.10;99.90
42979;DHT22;28616;44.746;19.678;2022-12-07T09:06:00;7.00;99.90
42979;DHT22;28616;44.746;19.678;2022-12-07T09:08:33;7.10;99.90
42979;DHT22;28616;44.746;19.678;2022-12-07T09:11:00;7.00;99.90
42979;DHT22;28616;44.746;19.678;2022-12-07T09:13:26;7.00;99.90
42979;DHT22;28616;44.746;19.678;2022-12-07T09:15:51;7.10;99.90
42979;DHT22;28616;44.746;19.678;2022-12-07T09:18:17;7.10;99.90
42979;DHT22;28616;44.746;19.678;2022-12-07T09:20:43;7.10;99.90
42979;DHT22;28616;44.746;19.678;2022-12-07T09:23:09;7.00;99.90
42979;DHT22;28616;44.746;19.678;2022-12-07T09:25:35;7.00;99.90
42979;DHT22;28616;44.746;19.678;2022-12-07T09:28:01;7.00;99.90
42979;DHT22;28616;44.746;19.678;2022-12-07T09:30:27;7.10;99.90
42979;DHT22;28616;44.746;19.678;2022-12-07T09:32:54;7.10;99.90
42979;DHT22;28616;44.746;19.678;2022-12-07T09:35:20;7.10;99.90
42979;DHT22;28616;44.746;19.678;2022-12-07T09:37:46;7.10;99.90
42979;DHT22;28616;44.746;19.678;2022-12-07T09:40:13;7.10;99.90
42979;DHT22;28616;44.746;19.678;2022-12-07T09:42:43;7.10;99.90
42979;DHT22;28616;44.746;19.678;2022-12-07T09:45:16;7.20;99.90
42979;DHT22;28616;44.746;19.678;2022-12-07T09:47:44;7.20;99.90
42979;DHT22;28616;44.746;19.678;2022-12-07T09:50:16;7.20;99.90
42979;DHT22;28616;44.746;19.678;2022-12-07T09:52:43;7.30;99.90
42979;DHT22;28616;44.746;19.678;2022-12-07T09:55:14;7.30;99.90
42979;DHT22;28616;44.746;19.678;2022-12-07T09:57:41;7.40;99.90
42979;DHT22;28616;44.746;19.678;2022-12-07T10:00:18;7.40;99.90
42979;DHT22;28616;44.746;19.678;2022-12-07T10:03:05;7.50;99.90
42979;DHT22;28616;44.746;19.678;2022-12-07T10:05:40;7.30;99.90
42979;DHT22;28616;44.746;19.678;2022-12-07T10:08:11;7.40;99.90
42979;DHT22;28616;44.746;19.678;2022-12-07T10:10:37;7.40;99.90
42979;DHT22;28616;44.746;19.678;2022-12-07T10:15:42;7.50;99.90
42979;DHT22;28616;44.746;19.678;2022-12-07T10:23:27;7.50;99.90
42979;DHT22;28616;44.746;19.678;2022-12-07T10:25:53;7.40;99.90
42979;DHT22;28616;44.746;19.678;2022-12-07T10:28:21;7.50;99.90
42979;DHT22;28616;44.746;19.678;2022-12-07T10:30:57;7.50;99.90
42979;DHT22;28616;44.746;19.678;2022-12-07T10:33:40;7.60;99.90
42979;DHT22;28616;44.746;19.678;2022-12-07T10:36:21;7.60;99.90
42979;DHT22;28616;44.746;19.678;2022-12-07T10:38:53;7.50;99.90
42979;DHT22;28616;44.746;19.678;2022-12-07T10:41:23;7.50;99.90
42979;DHT22;28616;44.746;19.678;2022-12-07T10:43:52;7.50;99.90
42979;DHT22;28616;44.746;19.678;2022-12-07T10:46:37;7.50;99.90
42979;DHT22;28616;44.746;19.678;2022-12-07T10:49:10;7.50;99.90
42979;DHT22;28616;44.746;19.678;2022-12-07T10:51:57;7.60;99.90
42979;DHT22;28616;44.746;19.678;2022-12-07T11:00:25;7.60;99.90
42979;DHT22;28616;44.746;19.678;2022-12-07T11:11:31;7.60;99.90
42979;DHT22;28616;44.746;19.678;2022-12-07T11:14:15;7.70;99.90
42979;DHT22;28616;44.746;19.678;2022-12-07T11:24:31;7.90;99.90
42979;DHT22;28616;44.746;19.678;2022-12-07T11:29:42;7.80;99.90
42979;DHT22;28616;44.746;19.678;2022-12-07T11:35:22;7.90;99.90
42979;DHT22;28616;44.746;19.678;2022-12-07T11:37:56;7.90;99.90
42979;DHT22;28616;44.746;19.678;2022-12-07T11:40:36;7.90;99.90
42979;DHT22;28616;44.746;19.678;2022-12-07T11:43:36;7.90;99.90
42979;DHT22;28616;44.746;19.678;2022-12-07T11:46:08;8.00;99.90
42979;DHT22;28616;44.746;19.678;2022-12-07T11:48:43;7.90;99.90
42979;DHT22;28616;44.746;19.678;2022-12-07T11:51:12;7.90;99.90
42979;DHT22;28616;44.746;19.678;2022-12-07T11:53:39;7.90;99.90
42979;DHT22;28616;44.746;19.678;2022-12-07T11:56:13;7.80;99.90
42979;DHT22;28616;44.746;19.678;2022-12-07T12:06:41;7.70;99.90
42979;DHT22;28616;44.746;19.678;2022-12-07T12:09:27;7.80;99.90
42979;DHT22;28616;44.746;19.678;2022-12-07T12:19:40;7.70;99.90
42979;DHT22;28616;44.746;19.678;2022-12-07T12:22:18;7.70;99.90
42979;DHT22;28616;44.746;19.678;2022-12-07T12:24:49;7.70;99.90
42979;DHT22;28616;44.746;19.678;2022-12-07T12:27:29;7.60;99.90
42979;DHT22;28616;44.746;19.678;2022-12-07T12:30:01;7.70;99.90
42979;DHT22;28616;44.746;19.678;2022-12-07T12:32:40;7.70;99.90
42979;DHT22;28616;44.746;19.678;2022-12-07T12:37:48;7.70;99.90
42979;DHT22;28616;44.746;19.678;2022-12-07T12:42:53;7.60;99.90
42979;DHT22;28616;44.746;19.678;2022-12-07T12:45:27;7.60;99.90
42979;DHT22;28616;44.746;19.678;2022-12-07T12:48:01;7.60;99.90
42979;DHT22;28616;44.746;19.678;2022-12-07T12:50:35;7.60;99.90
42979;DHT22;28616;44.746;19.678;2022-12-07T13:00:46;7.70;99.90
42979;DHT22;28616;44.746;19.678;2022-12-07T13:03:26;7.70;99.90
42979;DHT22;28616;44.746;19.678;2022-12-07T13:06:32;7.70;99.90
42979;DHT22;28616;44.746;19.678;2022-12-07T13:09:01;7.70;99.90
42979;DHT22;28616;44.746;19.678;2022-12-07T13:11:35;7.70;99.90
42979;DHT22;28616;44.746;19.678;2022-12-07T13:17:53;7.60;99.90
42979;DHT22;28616;44.746;19.678;2022-12-07T13:20:05;7.60;99.90
42979;DHT22;28616;44.746;19.678;2022-12-07T13:28:02;7.60;99.90
42979;DHT22;28616;44.746;19.678;2022-12-07T13:30:43;7.60;99.90
42979;DHT22;28616;44.746;19.678;2022-12-07T13:33:10;7.60;99.90
42979;DHT22;28616;44.746;19.678;2022-12-07T13:35:37;7.60;99.90
42979;DHT22;28616;44.746;19.678;2022-12-07T13:38:27;7.50;99.90
42979;DHT22;28616;44.746;19.678;2022-12-07T13:41:05;7.50;99.90
42979;DHT22;28616;44.746;19.678;2022-12-07T13:43:51;7.60;99.90
42979;DHT22;28616;44.746;19.678;2022-12-07T13:46:21;7.60;99.90
42979;DHT22;28616;44.746;19.678;2022-12-07T13:48:50;7.50;99.90
42979;DHT22;28616;44.746;19.678;2022-12-07T13:51:27;7.50;99.90
42979;DHT22;28616;44.746;19.678;2022-12-07T13:54:00;7.50;99.90
42979;DHT22;28616;44.746;19.678;2022-12-07T13:56:31;7.50;99.90
42979;DHT22;28616;44.746;19.678;2022-12-07T13:58:58;7.50;99.90
42979;DHT22;28616;44.746;19.678;2022-12-07T14:01:25;7.40;99.90
42979;DHT22;28616;44.746;19.678;2022-12-07T14:03:51;7.40;99.90
42979;DHT22;28616;44.746;19.678;2022-12-07T14:06:22;7.40;99.90
42979;DHT22;28616;44.746;19.678;2022-12-07T14:09:05;7.40;99.90
42979;DHT22;28616;44.746;19.678;2022-12-07T14:11:31;7.50;99.90
42979;DHT22;28616;44.746;19.678;2022-12-07T14:14:02;7.50;99.90
42979;DHT22;28616;44.746;19.678;2022-12-07T14:16:36;7.50;99.90
42979;DHT22;28616;44.746;19.678;2022-12-07T14:19:40;7.40;99.90
42979;DHT22;28616;44.746;19.678;2022-12-07T14:22:08;7.50;99.90
42979;DHT22;28616;44.746;19.678;2022-12-07T14:24:43;7.50;99.90
42979;DHT22;28616;44.746;19.678;2022-12-07T14:27:23;7.50;99.90
42979;DHT22;28616;44.746;19.678;2022-12-07T14:29:51;7.40;99.90
42979;DHT22;28616;44.746;19.678;2022-12-07T14:32:25;7.40;99.90
42979;DHT22;28616;44.746;19.678;2022-12-07T14:35:03;7.40;99.90
42979;DHT22;28616;44.746;19.678;2022-12-07T14:37:30;7.30;99.90
42979;DHT22;28616;44.746;19.678;2022-12-07T14:39:56;7.40;99.90
42979;DHT22;28616;44.746;19.678;2022-12-07T14:42:26;7.40;99.90
42979;DHT22;28616;44.746;19.678;2022-12-07T14:44:52;7.40;99.90
42979;DHT22;28616;44.746;19.678;2022-12-07T14:47:18;7.40;99.90
42979;DHT22;28616;44.746;19.678;2022-12-07T14:49:44;7.40;99.90
42979;DHT22;28616;44.746;19.678;2022-12-07T14:52:21;7.40;99.90
42979;DHT22;28616;44.746;19.678;2022-12-07T14:54:48;7.40;99.90
42979;DHT22;28616;44.746;19.678;2022-12-07T14:57:14;7.40;99.90
42979;DHT22;28616;44.746;19.678;2022-12-07T14:59:40;7.30;99.90
42979;DHT22;28616;44.746;19.678;2022-12-07T15:02:06;7.30;99.90
42979;DHT22;28616;44.746;19.678;2022-12-07T15:04:34;7.30;99.90
42979;DHT22;28616;44.746;19.678;2022-12-07T15:07:05;7.20;99.90
42979;DHT22;28616;44.746;19.678;2022-12-07T15:09:31;7.30;99.90
42979;DHT22;28616;44.746;19.678;2022-12-07T15:11:57;7.30;99.90
42979;DHT22;28616;44.746;19.678;2022-12-07T15:14:23;7.30;99.90
42979;DHT22;28616;44.746;19.678;2022-12-07T15:16:48;7.30;99.90
42979;DHT22;28616;44.746;19.678;2022-12-07T15:19:20;7.20;99.90
42979;DHT22;28616;44.746;19.678;2022-12-07T15:21:52;7.20;99.90
42979;DHT22;28616;44.746;19.678;2022-12-07T15:24:18;7.20;99.90
42979;DHT22;28616;44.746;19.678;2022-12-07T15:26:44;7.20;99.90
42979;DHT22;28616;44.746;19.678;2022-12-07T15:29:10;7.20;99.90
42979;DHT22;28616;44.746;19.678;2022-12-07T15:31:37;7.20;99.90
42979;DHT22;28616;44.746;19.678;2022-12-07T15:34:04;7.10;99.90
42979;DHT22;28616;44.746;19.678;2022-12-07T15:36:31;7.10;99.90
42979;DHT22;28616;44.746;19.678;2022-12-07T15:38:58;7.10;99.90
42979;DHT22;28616;44.746;19.678;2022-12-07T15:41:24;7.10;99.90
42979;DHT22;28616;44.746;19.678;2022-12-07T15:43:50;7.10;99.90
42979;DHT22;28616;44.746;19.678;2022-12-07T15:46:39;7.10;99.90
42979;DHT22;28616;44.746;19.678;2022-12-07T15:49:14;7.10;99.90
42979;DHT22;28616;44.746;19.678;2022-12-07T15:51:41;7.10;99.90
42979;DHT22;28616;44.746;19.678;2022-12-07T15:54:08;7.10;99.90
42979;DHT22;28616;44.746;19.678;2022-12-07T15:56:37;7.10;99.90
42979;DHT22;28616;44.746;19.678;2022-12-07T15:59:02;7.00;99.90
42979;DHT22;28616;44.746;19.678;2022-12-07T16:01:28;7.00;99.90
42979;DHT22;28616;44.746;19.678;2022-12-07T16:03:54;7.00;99.90
42979;DHT22;28616;44.746;19.678;2022-12-07T16:06:22;7.10;99.90
42979;DHT22;28616;44.746;19.678;2022-12-07T16:08:48;7.10;99.90
42979;DHT22;28616;44.746;19.678;2022-12-07T16:11:14;7.10;99.90
42979;DHT22;28616;44.746;19.678;2022-12-07T16:13:40;7.10;99.90
42979;DHT22;28616;44.746;19.678;2022-12-07T16:16:08;7.10;99.90
42979;DHT22;28616;44.746;19.678;2022-12-07T16:18:35;7.10;99.90
42979;DHT22;28616;44.746;19.678;2022-12-07T16:21:01;7.10;99.90
42979;DHT22;28616;44.746;19.678;2022-12-07T16:23:27;7.10;99.90
42979;DHT22;28616;44.746;19.678;2022-12-07T16:25:53;7.00;99.90
42979;DHT22;28616;44.746;19.678;2022-12-07T16:28:18;7.00;99.90
42979;DHT22;28616;44.746;19.678;2022-12-07T16:30:44;7.00;99.90
42979;DHT22;28616;44.746;19.678;2022-12-07T16:33:11;7.00;99.90
42979;DHT22;28616;44.746;19.678;2022-12-07T16:35:40;7.10;99.90
42979;DHT22;28616;44.746;19.678;2022-12-07T16:38:06;7.10;99.90
42979;DHT22;28616;44.746;19.678;2022-12-07T16:40:32;7.10;99.90
42979;DHT22;28616;44.746;19.678;2022-12-07T16:42:58;7.10;99.90
42979;DHT22;28616;44.746;19.678;2022-12-07T16:45:24;7.10;99.90
42979;DHT22;28616;44.746;19.678;2022-12-07T16:47:50;7.10;99.90
42979;DHT22;28616;44.746;19.678;2022-12-07T16:50:16;7.10;99.90
42979;DHT22;28616;44.746;19.678;2022-12-07T16:52:41;7.10;99.90
42979;DHT22;28616;44.746;19.678;2022-12-07T16:55:07;7.10;99.90
42979;DHT22;28616;44.746;19.678;2022-12-07T16:57:33;7.10;99.90
42979;DHT22;28616;44.746;19.678;2022-12-07T16:59:59;7.10;99.90
42979;DHT22;28616;44.746;19.678;2022-12-07T17:02:25;7.00;99.90
42979;DHT22;28616;44.746;19.678;2022-12-07T17:04:51;7.10;99.90
42979;DHT22;28616;44.746;19.678;2022-12-07T17:07:17;7.00;99.90
42979;DHT22;28616;44.746;19.678;2022-12-07T17:09:43;7.00;99.90
42979;DHT22;28616;44.746;19.678;2022-12-07T17:12:08;7.00;99.90
42979;DHT22;28616;44.746;19.678;2022-12-07T17:14:35;7.00;99.90
42979;DHT22;28616;44.746;19.678;2022-12-07T17:17:19;7.00;99.90
42979;DHT22;28616;44.746;19.678;2022-12-07T17:19:45;7.00;99.90
42979;DHT22;28616;44.746;19.678;2022-12-07T17:22:12;6.90;99.90
42979;DHT22;28616;44.746;19.678;2022-12-07T17:24:38;7.00;99.90
42979;DHT22;28616;44.746;19.678;2022-12-07T17:27:04;6.90;99.90
42979;DHT22;28616;44.746;19.678;2022-12-07T17:29:30;6.90;99.90
42979;DHT22;28616;44.746;19.678;2022-12-07T17:31:56;6.90;99.90
42979;DHT22;28616;44.746;19.678;2022-12-07T17:34:22;7.00;99.90